createdAt,value
2022-09-01T00:01:18.740Z,22.20
2022-09-01T00:03:52.439Z,22.20
2022-09-01T00:06:24.816Z,22.20
2022-09-01T00:08:57.707Z,22.30
2022-09-01T00:11:29.733Z,22.20
2022-09-01T00:14:01.680Z,22.20
2022-09-01T00:16:32.289Z,22.00
2022-09-01T00:19:02.270Z,21.80
2022-09-01T00:21:37.851Z,21.90
2022-09-01T00:24:08.227Z,21.80
2022-09-01T00:26:38.697Z,21.90
2022-09-01T00:29:27.623Z,22.00
2022-09-01T00:31:57.322Z,21.80
2022-09-01T00:34:26.901Z,21.70
2022-09-01T00:36:56.418Z,21.60
2022-09-01T00:39:26.158Z,21.70
2022-09-01T00:41:56.508Z,21.70
2022-09-01T00:44:31.181Z,21.70
2022-09-01T00:47:01.241Z,21.70
2022-09-01T00:49:39.323Z,21.70
2022-09-01T00:52:26.304Z,21.60
2022-09-01T00:54:58.489Z,21.60
2022-09-01T00:57:29.102Z,21.60
2022-09-01T01:00:01.635Z,21.60
2022-09-01T01:02:31.321Z,21.60
2022-09-01T01:05:03.665Z,21.50
2022-09-01T01:07:36.076Z,21.30
2022-09-01T01:10:07.787Z,21.40
2022-09-01T01:12:38.074Z,21.30
2022-09-01T01:15:11.194Z,21.40
2022-09-01T01:17:44.619Z,21.30
2022-09-01T01:20:34.249Z,21.40
2022-09-01T01:23:20.598Z,21.20
2022-09-01T01:25:58.203Z,21.20
2022-09-01T01:28:38.588Z,21.20
2022-09-01T01:31:20.433Z,21.10
2022-09-01T01:33:53.142Z,21.10
2022-09-01T01:36:32.840Z,21.20
2022-09-01T01:39:16.050Z,21.20
2022-09-01T01:41:49.799Z,21.00
2022-09-01T01:44:24.159Z,21.00
2022-09-01T01:46:57.347Z,21.10
2022-09-01T01:49:30.832Z,21.20
2022-09-01T01:52:00.881Z,21.20
2022-09-01T01:54:33.090Z,21.20
2022-09-01T01:57:08.317Z,21.20
2022-09-01T01:59:39.522Z,21.10
2022-09-01T02:02:09.986Z,21.00
2022-09-01T02:04:41.869Z,20.90
2022-09-01T02:07:14.833Z,21.00
2022-09-01T02:09:45.262Z,21.10
2022-09-01T02:12:18.061Z,21.30
2022-09-01T02:14:48.594Z,21.20
2022-09-01T02:17:18.652Z,21.20
2022-09-01T02:19:49.674Z,21.30
2022-09-01T02:22:20.753Z,21.30
2022-09-01T02:26:05.263Z,21.20
2022-09-01T02:28:18.341Z,21.20
2022-09-01T02:30:52.235Z,21.40
2022-09-01T02:33:25.569Z,21.20
2022-09-01T02:36:01.658Z,21.10
2022-09-01T02:38:34.104Z,21.10
2022-09-01T02:41:03.705Z,21.00
2022-09-01T02:43:34.283Z,21.00
2022-09-01T02:46:06.127Z,20.90
2022-09-01T02:48:41.714Z,21.00
2022-09-01T02:51:14.303Z,20.90
2022-09-01T02:53:44.034Z,20.90
2022-09-01T02:56:14.552Z,20.80
2022-09-01T02:58:47.881Z,20.80
2022-09-01T03:01:32.427Z,20.90
2022-09-01T03:04:11.375Z,21.00
2022-09-01T03:06:41.623Z,21.00
2022-09-01T03:09:14.865Z,21.00
2022-09-01T03:11:47.658Z,21.00
2022-09-01T03:14:17.415Z,20.80
2022-09-01T03:16:47.057Z,21.00
2022-09-01T03:19:18.941Z,20.90
2022-09-01T03:21:50.350Z,20.90
2022-09-01T03:24:22.790Z,20.90
2022-09-01T03:26:54.471Z,21.00
2022-09-01T03:29:24.715Z,20.90
2022-09-01T03:31:54.703Z,21.00
2022-09-01T03:34:24.470Z,21.00
2022-09-01T03:36:56.670Z,20.90
2022-09-01T03:39:30.058Z,20.80
2022-09-01T03:42:01.122Z,20.90
2022-09-01T03:44:32.371Z,21.00
2022-09-01T03:47:03.858Z,21.00
2022-09-01T03:49:35.280Z,21.00
2022-09-01T03:52:06.755Z,21.00
2022-09-01T03:54:36.439Z,20.80
2022-09-01T03:57:07.858Z,20.80
2022-09-01T03:59:40.808Z,20.70
2022-09-01T04:02:12.100Z,20.90
2022-09-01T04:04:42.161Z,20.80
2022-09-01T04:07:15.530Z,20.90
2022-09-01T04:09:44.312Z,20.80
2022-09-01T04:12:15.379Z,20.80
2022-09-01T04:14:48.199Z,20.80
2022-09-01T04:17:35.480Z,20.80
2022-09-01T04:20:09.372Z,20.90
2022-09-01T04:22:38.885Z,20.90
2022-09-01T04:25:09.098Z,21.00
2022-09-01T04:27:40.816Z,21.10
2022-09-01T04:30:14.361Z,21.00
2022-09-01T04:32:46.903Z,21.00
2022-09-01T04:35:18.324Z,21.10
2022-09-01T04:37:50.036Z,21.10
2022-09-01T04:40:21.276Z,21.10
2022-09-01T04:42:52.370Z,21.20
2022-09-01T04:45:23.691Z,21.20
2022-09-01T04:47:56.661Z,21.10
2022-09-01T04:50:28.135Z,21.00
2022-09-01T04:53:16.052Z,21.00
2022-09-01T04:55:50.182Z,21.00
2022-09-01T04:58:22.598Z,20.90
2022-09-01T05:00:52.805Z,20.90
2022-09-01T05:03:24.505Z,20.90
2022-09-01T05:05:58.340Z,20.80
2022-09-01T05:08:31.886Z,20.70
2022-09-01T05:11:02.991Z,20.70
2022-09-01T05:13:36.151Z,20.80
2022-09-01T05:16:10.637Z,20.60
2022-09-01T05:18:44.737Z,20.60
2022-09-01T05:21:18.857Z,20.70
2022-09-01T05:23:51.925Z,20.80
2022-09-01T05:26:26.272Z,20.70
2022-09-01T05:28:58.949Z,20.60
2022-09-01T05:31:33.433Z,20.50
2022-09-01T05:34:04.789Z,20.50
2022-09-01T05:36:34.406Z,20.50
2022-09-01T05:39:07.632Z,20.60
2022-09-01T05:41:40.109Z,20.70
2022-09-01T05:44:11.321Z,20.70
2022-09-01T05:46:43.897Z,20.70
2022-09-01T05:49:16.425Z,20.70
2022-09-01T05:51:53.109Z,20.80
2022-09-01T05:54:26.402Z,20.80
2022-09-01T05:57:17.534Z,20.80
2022-09-01T05:59:34.233Z,20.70
2022-09-01T06:02:09.681Z,20.70
2022-09-01T06:04:42.546Z,20.70
2022-09-01T06:07:16.336Z,20.80
2022-09-01T06:09:50.442Z,20.80
2022-09-01T06:12:24.037Z,20.90
2022-09-01T06:14:56.563Z,20.80
2022-09-01T06:17:30.379Z,20.90
2022-09-01T06:20:02.484Z,21.00
2022-09-01T06:22:32.607Z,21.00
2022-09-01T06:25:03.909Z,21.00
2022-09-01T06:27:36.694Z,21.10
2022-09-01T06:30:09.882Z,21.10
2022-09-01T06:32:41.563Z,21.20
2022-09-01T06:35:12.864Z,21.20
2022-09-01T06:37:44.809Z,21.30
2022-09-01T06:40:17.864Z,21.20
2022-09-01T06:42:51.190Z,21.30
2022-09-01T06:45:23.576Z,21.40
2022-09-01T06:47:59.655Z,21.40
2022-09-01T06:55:31.857Z,21.90
2022-09-01T06:58:05.851Z,21.90
2022-09-01T07:00:37.102Z,22.00
2022-09-01T07:03:08.678Z,22.10
2022-09-01T07:08:18.112Z,22.10
2022-09-01T07:14:15.179Z,22.00
2022-09-01T07:18:58.951Z,22.50
2022-09-01T07:21:42.431Z,22.70
2022-09-01T07:24:10.636Z,22.70
2022-09-01T07:26:46.788Z,22.90
2022-09-01T07:29:09.518Z,23.10
2022-09-01T07:31:52.182Z,23.50
2022-09-01T07:42:31.320Z,22.30
2022-09-01T07:44:29.608Z,23.40
2022-09-01T07:47:20.197Z,23.50
2022-09-01T07:50:12.593Z,23.60
2022-09-01T07:52:22.761Z,23.60
2022-09-01T07:54:54.229Z,23.60
2022-09-01T07:57:24.169Z,23.80
2022-09-01T07:59:55.922Z,23.90
2022-09-01T08:02:28.789Z,24.00
2022-09-01T08:04:59.050Z,23.80
2022-09-01T08:07:29.030Z,23.80
2022-09-01T08:10:01.366Z,24.00
2022-09-01T08:12:30.997Z,24.30
2022-09-01T08:17:50.295Z,24.70
2022-09-01T08:20:12.955Z,24.60
2022-09-01T08:22:48.712Z,24.80
2022-09-01T08:25:24.687Z,24.70
2022-09-01T08:27:59.710Z,24.40
2022-09-01T08:30:23.874Z,24.30
2022-09-01T08:32:53.573Z,24.40
2022-09-01T08:35:23.191Z,24.80
2022-09-01T08:37:54.282Z,25.20
2022-09-01T08:40:24.707Z,25.40
2022-09-01T08:43:09.940Z,26.10
2022-09-01T08:45:49.026Z,25.80
2022-09-01T08:49:23.207Z,25.40
2022-09-01T08:51:36.835Z,25.30
2022-09-01T08:54:29.285Z,25.30
2022-09-01T08:57:06.695Z,25.60
2022-09-01T08:59:53.792Z,25.80
2022-09-01T09:03:09.068Z,26.10
2022-09-01T09:06:14.670Z,25.90
2022-09-01T09:09:03.811Z,25.80
2022-09-01T09:11:48.578Z,25.60
2022-09-01T09:14:36.399Z,25.80
2022-09-01T09:17:06.677Z,25.80
2022-09-01T09:19:44.816Z,25.70
2022-09-01T09:22:17.455Z,25.50
2022-09-01T09:25:11.348Z,25.30
2022-09-01T09:27:43.858Z,25.40
2022-09-01T09:30:23.819Z,25.20
2022-09-01T09:35:43.135Z,25.80
2022-09-01T09:38:26.169Z,26.50
2022-09-01T09:41:16.575Z,27.20
2022-09-01T09:46:30.302Z,27.80
2022-09-01T09:49:34.718Z,27.90
2022-09-01T09:51:58.848Z,28.00
2022-09-01T09:54:31.922Z,28.80
2022-09-01T09:57:14.856Z,28.60
2022-09-01T10:00:00.966Z,27.70
2022-09-01T10:02:41.897Z,27.50
2022-09-01T10:05:32.177Z,27.40
2022-09-01T10:08:03.640Z,28.20
2022-09-01T10:10:57.264Z,28.30
2022-09-01T10:13:22.206Z,28.20
2022-09-01T10:15:54.749Z,27.70
2022-09-01T10:18:30.288Z,27.30
2022-09-01T10:21:04.568Z,27.40
2022-09-01T10:23:38.800Z,28.20
2022-09-01T10:26:20.973Z,29.60
2022-09-01T10:29:15.623Z,30.90
2022-09-01T10:34:19.475Z,31.00
2022-09-01T10:36:56.054Z,30.80
2022-09-01T10:39:22.546Z,29.10
2022-09-01T10:41:59.720Z,30.00
2022-09-01T10:44:38.907Z,29.40
2022-09-01T10:47:16.316Z,29.70
2022-09-01T10:49:52.370Z,30.60
2022-09-01T10:52:51.209Z,30.90
2022-09-01T10:55:25.529Z,31.00
2022-09-01T10:59:31.273Z,29.90
2022-09-01T11:03:30.458Z,29.20
2022-09-01T11:06:18.452Z,30.50
2022-09-01T11:08:37.449Z,30.60
2022-09-01T11:11:19.437Z,30.80
2022-09-01T11:13:51.781Z,31.50
2022-09-01T11:16:46.633Z,30.10
2022-09-01T11:19:37.680Z,30.30
2022-09-01T11:22:15.877Z,29.80
2022-09-01T11:25:00.118Z,30.90
2022-09-01T11:27:52.510Z,30.40
2022-09-01T11:30:33.620Z,30.30
2022-09-01T11:33:30.503Z,31.40
2022-09-01T11:36:06.229Z,30.40
2022-09-01T11:38:44.948Z,31.20
2022-09-01T11:41:27.211Z,29.80
2022-09-01T11:43:58.421Z,30.80
2022-09-01T11:46:32.570Z,29.50
2022-09-01T11:49:05.236Z,30.60
2022-09-01T11:51:41.358Z,31.10
2022-09-01T11:54:12.449Z,29.40
2022-09-01T11:56:43.510Z,29.70
2022-09-01T11:59:13.057Z,30.00
2022-09-01T12:01:42.622Z,28.40
2022-09-01T12:04:24.105Z,30.00
2022-09-01T12:06:56.659Z,31.70
2022-09-01T12:09:26.885Z,32.40
2022-09-01T12:11:56.326Z,32.40
2022-09-01T12:14:25.887Z,33.20
2022-09-01T12:17:04.346Z,33.30
2022-09-01T12:19:38.588Z,33.30
2022-09-01T12:22:16.678Z,33.10
2022-09-01T12:24:49.846Z,33.50
2022-09-01T12:27:19.757Z,32.30
2022-09-01T12:29:49.872Z,31.10
2022-09-01T12:32:20.793Z,31.40
2022-09-01T12:35:09.250Z,31.60
2022-09-01T12:37:33.511Z,30.70
2022-09-01T12:40:05.911Z,29.70
2022-09-01T12:42:41.021Z,31.30
2022-09-01T12:45:10.799Z,31.70
2022-09-01T12:47:50.379Z,32.40
2022-09-01T12:50:29.799Z,32.20
2022-09-01T12:53:03.714Z,30.10
2022-09-01T12:55:51.015Z,29.90
2022-09-01T12:58:09.706Z,30.20
2022-09-01T13:01:00.953Z,30.00
2022-09-01T13:03:31.482Z,30.40
2022-09-01T13:06:05.350Z,30.60
2022-09-01T13:08:37.780Z,32.20
2022-09-01T13:11:11.334Z,33.20
2022-09-01T13:13:42.531Z,33.40
2022-09-01T13:16:15.546Z,33.20
2022-09-01T13:21:16.745Z,32.80
2022-09-01T13:23:46.850Z,33.60
2022-09-01T13:26:16.310Z,33.30
2022-09-01T13:28:47.518Z,33.00
2022-09-01T13:31:31.742Z,32.00
2022-09-01T13:34:10.922Z,32.90
2022-09-01T13:38:57.428Z,33.50
2022-09-01T13:41:26.875Z,33.40
2022-09-01T13:43:56.475Z,33.50
2022-09-01T13:46:26.031Z,33.20
2022-09-01T13:49:05.001Z,33.10
2022-09-01T13:51:29.660Z,32.10
2022-09-01T13:53:58.950Z,32.50
2022-09-01T13:56:28.318Z,32.60
2022-09-01T13:58:57.862Z,32.60
2022-09-01T14:01:28.429Z,32.20
2022-09-01T14:04:00.514Z,32.50
2022-09-01T14:06:30.493Z,32.80
2022-09-01T14:09:01.181Z,32.90
2022-09-01T14:11:32.136Z,33.20
2022-09-01T14:14:01.566Z,31.10
2022-09-01T14:16:31.372Z,30.50
2022-09-01T14:19:02.035Z,31.30
2022-09-01T14:21:31.477Z,31.40
2022-09-01T14:24:01.409Z,31.70
2022-09-01T14:26:31.267Z,31.00
2022-09-01T14:29:02.591Z,31.40
2022-09-01T14:31:32.118Z,30.80
2022-09-01T14:34:01.636Z,31.80
2022-09-01T14:36:33.042Z,31.30
2022-09-01T14:39:02.555Z,31.60
2022-09-01T14:41:32.444Z,31.40
2022-09-01T14:44:03.447Z,31.60
2022-09-01T14:46:34.951Z,31.90
2022-09-01T14:49:08.013Z,31.90
2022-09-01T14:54:08.854Z,32.10
2022-09-01T14:56:38.218Z,31.80
2022-09-01T14:59:09.088Z,31.30
2022-09-01T15:01:38.893Z,31.70
2022-09-01T15:04:08.398Z,31.80
2022-09-01T15:06:37.868Z,31.10
2022-09-01T15:09:08.841Z,30.70
2022-09-01T15:11:44.004Z,30.40
2022-09-01T15:14:11.501Z,30.10
2022-09-01T15:16:42.196Z,29.70
2022-09-01T15:19:13.964Z,30.00
2022-09-01T15:21:45.974Z,30.30
2022-09-01T15:24:28.646Z,30.80
2022-09-01T15:26:58.197Z,30.50
2022-09-01T15:29:27.630Z,30.80
2022-09-01T15:31:58.610Z,31.10
2022-09-01T15:34:29.060Z,31.30
2022-09-01T15:36:58.523Z,31.10
2022-09-01T15:39:37.722Z,30.90
2022-09-01T15:41:59.274Z,30.70
2022-09-01T15:44:29.591Z,30.60
2022-09-01T15:47:00.305Z,30.20
2022-09-01T15:49:30.061Z,30.40
2022-09-01T15:52:01.348Z,30.60
2022-09-01T15:54:31.009Z,30.70
2022-09-01T15:57:00.408Z,30.50
2022-09-01T15:59:30.556Z,30.40
2022-09-01T16:02:00.889Z,30.30
2022-09-01T16:04:30.506Z,30.00
2022-09-01T16:07:00.179Z,30.00
2022-09-01T16:09:29.765Z,29.80
2022-09-01T16:11:59.313Z,29.60
2022-09-01T16:14:30.862Z,29.90
2022-09-01T16:17:24.149Z,29.90
2022-09-01T16:19:59.390Z,29.30
2022-09-01T16:22:34.711Z,29.20
2022-09-01T16:25:17.231Z,29.50
2022-09-01T16:27:48.243Z,29.80
2022-09-01T16:30:24.565Z,30.00
2022-09-01T16:32:56.058Z,30.10
2022-09-01T16:35:29.718Z,30.00
2022-09-01T16:38:11.462Z,30.00
2022-09-01T16:40:44.001Z,30.00
2022-09-01T16:43:30.930Z,30.10
2022-09-01T16:46:12.384Z,30.20
2022-09-01T16:48:47.676Z,29.70
2022-09-01T16:51:42.508Z,29.70
2022-09-01T16:54:19.317Z,30.00
2022-09-01T16:57:03.977Z,29.80
2022-09-01T16:59:39.413Z,29.80
2022-09-01T17:02:30.154Z,29.70
2022-09-01T17:05:14.810Z,29.80
2022-09-01T17:07:54.386Z,29.40
2022-09-01T17:10:43.373Z,29.40
2022-09-01T17:13:35.820Z,29.30
2022-09-01T17:16:14.836Z,29.40
2022-09-01T17:18:58.517Z,29.20
2022-09-01T17:21:41.743Z,29.20
2022-09-01T17:24:40.232Z,29.30
2022-09-01T17:27:27.757Z,29.10
2022-09-01T17:29:58.291Z,29.00
2022-09-01T17:32:48.343Z,29.00
2022-09-01T17:35:39.486Z,29.00
2022-09-01T17:38:33.301Z,29.10
2022-09-01T17:41:31.650Z,28.80
2022-09-01T17:44:11.169Z,28.70
2022-09-01T17:46:54.089Z,28.70
2022-09-01T17:49:25.293Z,28.70
2022-09-01T17:51:57.712Z,28.80
2022-09-01T17:54:48.348Z,28.70
2022-09-01T17:57:33.018Z,28.60
2022-09-01T18:00:24.330Z,28.60
2022-09-01T18:03:02.591Z,28.40
2022-09-01T18:05:41.351Z,28.40
2022-09-01T18:08:30.392Z,28.30
2022-09-01T18:11:03.178Z,28.20
2022-09-01T18:13:52.934Z,28.10
2022-09-01T18:16:19.857Z,28.00
2022-09-01T18:18:51.563Z,27.80
2022-09-01T18:21:24.479Z,27.90
2022-09-01T18:23:56.990Z,27.80
2022-09-01T18:26:33.807Z,27.80
2022-09-01T18:29:06.102Z,27.60
2022-09-01T18:31:54.575Z,27.60
2022-09-01T18:34:27.161Z,27.60
2022-09-01T18:37:16.380Z,27.60
2022-09-01T18:40:08.447Z,27.60
2022-09-01T18:42:46.795Z,27.60
2022-09-01T18:45:31.160Z,27.60
2022-09-01T18:48:21.769Z,27.60
2022-09-01T18:50:56.943Z,27.60
2022-09-01T18:53:47.208Z,27.60
2022-09-01T18:56:40.694Z,27.50
2022-09-01T18:59:25.316Z,27.30
2022-09-01T19:02:16.498Z,27.30
2022-09-01T19:04:48.667Z,27.30
2022-09-01T19:07:28.426Z,27.30
2022-09-01T19:10:03.968Z,27.30
2022-09-01T19:12:48.645Z,27.30
2022-09-01T19:15:46.885Z,27.20
2022-09-01T19:18:46.531Z,27.20
2022-09-01T19:21:25.051Z,27.10
2022-09-01T19:24:00.235Z,27.10
2022-09-01T19:26:33.255Z,27.10
2022-09-01T19:29:09.379Z,27.10
2022-09-01T19:31:42.681Z,27.10
2022-09-01T19:34:18.002Z,27.00
2022-09-01T19:36:59.931Z,27.00
2022-09-01T19:39:35.148Z,27.00
2022-09-01T19:42:26.076Z,27.10
2022-09-01T19:45:10.157Z,27.10
2022-09-01T19:47:59.221Z,27.00
2022-09-01T19:50:45.071Z,27.00
2022-09-01T19:53:41.766Z,27.00
2022-09-01T19:56:19.016Z,27.00
2022-09-01T19:58:57.104Z,26.90
2022-09-01T20:01:59.339Z,26.90
2022-09-01T20:04:44.616Z,26.90
2022-09-01T20:07:20.110Z,26.90
2022-09-01T20:09:58.867Z,26.80
2022-09-01T20:12:41.019Z,26.80
2022-09-01T20:15:13.577Z,26.70
2022-09-01T20:17:56.530Z,26.70
2022-09-01T20:20:29.152Z,26.70
2022-09-01T20:23:05.310Z,26.70
2022-09-01T20:25:41.311Z,26.70
2022-09-01T20:28:19.721Z,26.70
2022-09-01T20:30:54.418Z,26.70
2022-09-01T20:33:38.219Z,26.50
2022-09-01T20:36:13.450Z,26.60
2022-09-01T20:39:09.593Z,26.60
2022-09-01T20:41:44.828Z,26.40
2022-09-01T20:44:19.882Z,26.40
2022-09-01T20:46:53.388Z,26.20
2022-09-01T20:49:23.729Z,26.10
2022-09-01T20:51:58.934Z,26.10
2022-09-01T20:54:46.382Z,25.90
2022-09-01T20:57:35.446Z,25.70
2022-09-01T21:00:23.014Z,25.80
2022-09-01T21:03:13.419Z,25.90
2022-09-01T21:05:54.718Z,25.90
2022-09-01T21:08:37.080Z,25.90
2022-09-01T21:11:21.491Z,25.80
2022-09-01T21:14:02.900Z,25.80
2022-09-01T21:16:44.483Z,25.80
2022-09-01T21:19:32.153Z,25.80
2022-09-01T21:22:07.256Z,25.80
2022-09-01T21:24:38.084Z,25.80
2022-09-01T21:27:19.462Z,25.70
2022-09-01T21:30:01.560Z,25.70
2022-09-01T21:32:33.851Z,25.70
2022-09-01T21:35:05.353Z,25.70
2022-09-01T21:37:36.321Z,25.70
2022-09-01T21:40:07.837Z,25.60
2022-09-01T21:42:43.296Z,25.60
2022-09-01T21:45:16.357Z,25.50
2022-09-01T21:47:48.262Z,25.50
2022-09-01T21:50:20.454Z,25.60
2022-09-01T21:52:50.064Z,25.50
2022-09-01T21:55:22.994Z,25.50
2022-09-01T21:57:52.889Z,25.40
2022-09-01T22:00:25.151Z,25.40
2022-09-01T22:02:57.735Z,25.40
2022-09-01T22:05:27.414Z,25.40
2022-09-01T22:07:59.405Z,25.40
2022-09-01T22:10:31.727Z,25.30
2022-09-01T22:13:03.763Z,25.20
2022-09-01T22:15:33.357Z,25.20
2022-09-01T22:18:02.914Z,25.20
2022-09-01T22:20:32.435Z,25.10
2022-09-01T22:23:05.035Z,25.10
2022-09-01T22:25:37.093Z,25.10
2022-09-01T22:28:08.007Z,25.10
2022-09-01T22:30:37.780Z,25.10
2022-09-01T22:33:09.954Z,25.00
2022-09-01T22:35:48.366Z,25.10
2022-09-01T22:38:21.034Z,25.10
2022-09-01T22:40:55.239Z,25.00
2022-09-01T22:43:27.186Z,25.00
2022-09-01T22:45:59.593Z,25.00
2022-09-01T22:48:29.809Z,25.00
2022-09-01T22:51:07.017Z,25.00
2022-09-01T22:53:36.129Z,24.90
2022-09-01T22:56:20.471Z,24.90
2022-09-01T22:58:53.787Z,24.90
2022-09-01T23:01:26.260Z,24.90
2022-09-01T23:03:57.369Z,24.90
2022-09-01T23:06:29.619Z,24.90
2022-09-01T23:09:01.311Z,24.90
2022-09-01T23:11:30.906Z,24.90
2022-09-01T23:14:02.135Z,25.00
2022-09-01T23:16:34.820Z,24.90
2022-09-01T23:19:03.682Z,24.90
2022-09-01T23:21:36.294Z,24.90
2022-09-01T23:24:08.343Z,24.90
2022-09-01T23:26:38.902Z,24.90
2022-09-01T23:29:09.763Z,24.90
2022-09-01T23:31:40.672Z,24.90
2022-09-01T23:34:10.412Z,24.70
2022-09-01T23:36:41.459Z,24.70
2022-09-01T23:39:10.916Z,24.50
2022-09-01T23:41:40.611Z,24.60
2022-09-01T23:44:12.182Z,24.60
2022-09-01T23:46:45.022Z,24.50
2022-09-01T23:49:17.078Z,24.50
2022-09-01T23:51:48.444Z,24.50
2022-09-01T23:54:18.249Z,24.30
2022-09-01T23:56:48.278Z,24.30
2022-09-01T23:59:22.880Z,24.10
